createdAt,value
2022-10-31T00:01:36.574Z,14.40
2022-10-31T00:04:03.664Z,14.40
2022-10-31T00:06:30.793Z,14.40
2022-10-31T00:09:02.784Z,14.30
2022-10-31T00:11:30.172Z,14.30
2022-10-31T00:13:58.901Z,14.30
2022-10-31T00:16:27.392Z,14.20
2022-10-31T00:18:57.728Z,14.20
2022-10-31T00:21:25.764Z,14.20
2022-10-31T00:23:52.738Z,14.10
2022-10-31T00:26:20.379Z,14.10
2022-10-31T00:28:47.187Z,14.00
2022-10-31T00:31:14.717Z,14.00
2022-10-31T00:33:42.426Z,14.00
2022-10-31T00:36:15.654Z,14.00
2022-10-31T00:38:43.896Z,14.00
2022-10-31T00:41:15.776Z,14.00
2022-10-31T00:43:43.854Z,14.00
2022-10-31T00:46:12.221Z,13.90
2022-10-31T00:48:39.009Z,13.90
2022-10-31T00:51:06.332Z,13.90
2022-10-31T00:53:33.108Z,13.90
2022-10-31T00:55:59.806Z,13.90
2022-10-31T00:58:26.465Z,13.90
2022-10-31T01:00:56.285Z,13.90
2022-10-31T01:03:29.277Z,13.90
2022-10-31T01:06:00.035Z,13.90
2022-10-31T01:08:27.088Z,13.80
2022-10-31T01:11:06.281Z,13.80
2022-10-31T01:13:33.494Z,13.80
2022-10-31T01:16:00.624Z,13.70
2022-10-31T01:18:27.949Z,13.70
2022-10-31T01:21:18.608Z,13.60
2022-10-31T01:23:45.694Z,13.60
2022-10-31T01:26:16.050Z,13.60
2022-10-31T01:28:50.717Z,13.50
2022-10-31T01:31:19.203Z,13.50
2022-10-31T01:33:46.955Z,13.40
2022-10-31T01:36:26.073Z,13.30
2022-10-31T01:38:54.787Z,13.30
2022-10-31T01:41:23.860Z,13.20
2022-10-31T01:43:59.599Z,13.10
2022-10-31T01:46:40.583Z,12.90
2022-10-31T01:49:13.948Z,12.90
2022-10-31T01:51:51.004Z,12.80
2022-10-31T01:54:22.116Z,12.80
2022-10-31T01:56:52.388Z,12.80
2022-10-31T01:59:21.707Z,12.80
2022-10-31T02:01:50.955Z,12.70
2022-10-31T02:04:19.336Z,12.70
2022-10-31T02:06:56.683Z,12.70
2022-10-31T02:09:24.773Z,12.60
2022-10-31T02:11:55.266Z,12.50
2022-10-31T02:14:27.799Z,12.50
2022-10-31T02:16:55.360Z,12.50
2022-10-31T02:19:44.223Z,12.50
2022-10-31T02:22:32.550Z,12.40
2022-10-31T02:25:08.318Z,12.40
2022-10-31T02:27:44.736Z,12.40
2022-10-31T02:30:21.020Z,12.40
2022-10-31T02:33:16.690Z,12.30
2022-10-31T02:35:56.908Z,12.30
2022-10-31T02:38:45.152Z,12.20
2022-10-31T02:41:33.811Z,12.20
2022-10-31T02:44:08.679Z,12.10
2022-10-31T02:46:46.044Z,12.10
2022-10-31T02:49:49.332Z,12.10
2022-10-31T02:52:20.337Z,12.00
2022-10-31T02:54:48.474Z,12.00
2022-10-31T02:57:18.097Z,12.00
2022-10-31T02:59:54.064Z,11.90
2022-10-31T03:02:26.746Z,11.90
2022-10-31T03:05:05.375Z,11.80
2022-10-31T03:07:55.162Z,11.80
2022-10-31T03:10:35.129Z,11.80
2022-10-31T03:15:54.331Z,11.80
2022-10-31T03:18:28.997Z,11.80
2022-10-31T03:21:02.625Z,11.80
2022-10-31T03:23:31.373Z,11.70
2022-10-31T03:26:00.789Z,11.70
2022-10-31T03:28:36.237Z,11.70
2022-10-31T03:31:07.415Z,11.70
2022-10-31T03:33:37.300Z,11.70
2022-10-31T03:36:05.897Z,11.70
2022-10-31T03:38:34.624Z,11.60
2022-10-31T03:41:06.532Z,11.60
2022-10-31T03:43:43.509Z,11.70
2022-10-31T03:46:10.666Z,11.60
2022-10-31T03:48:37.372Z,11.60
2022-10-31T03:51:20.988Z,11.60
2022-10-31T03:54:02.889Z,11.60
2022-10-31T03:56:36.931Z,11.60
2022-10-31T03:59:10.457Z,11.60
2022-10-31T04:01:42.039Z,11.60
2022-10-31T04:04:09.778Z,11.50
2022-10-31T04:06:39.933Z,11.50
2022-10-31T04:09:09.281Z,11.50
2022-10-31T04:11:41.859Z,11.40
2022-10-31T04:14:10.143Z,11.40
2022-10-31T04:16:37.035Z,11.40
2022-10-31T04:19:03.624Z,11.30
2022-10-31T04:21:31.277Z,11.20
2022-10-31T04:23:58.627Z,11.20
2022-10-31T04:26:25.316Z,11.20
2022-10-31T04:28:52.205Z,11.20
2022-10-31T04:31:19.299Z,11.10
2022-10-31T04:33:46.253Z,11.10
2022-10-31T04:36:12.984Z,11.10
2022-10-31T04:38:39.636Z,11.00
2022-10-31T04:41:06.389Z,11.00
2022-10-31T04:43:33.039Z,11.00
2022-10-31T04:45:59.669Z,11.00
2022-10-31T04:48:26.521Z,10.90
2022-10-31T04:50:53.152Z,10.90
2022-10-31T04:53:19.752Z,10.90
2022-10-31T04:55:46.588Z,10.90
2022-10-31T04:58:13.230Z,10.80
2022-10-31T05:00:39.912Z,10.80
2022-10-31T05:03:06.631Z,10.90
2022-10-31T05:05:33.296Z,10.80
2022-10-31T05:07:59.938Z,10.80
2022-10-31T05:10:28.927Z,10.80
2022-10-31T05:13:00.936Z,10.80
2022-10-31T05:15:28.622Z,10.70
2022-10-31T05:17:55.661Z,10.70
2022-10-31T05:20:25.806Z,10.60
2022-10-31T05:22:55.395Z,10.60
2022-10-31T05:25:24.906Z,10.50
2022-10-31T05:27:53.246Z,10.50
2022-10-31T05:30:23.352Z,10.50
2022-10-31T05:32:51.506Z,10.50
2022-10-31T05:35:21.408Z,10.50
2022-10-31T05:37:48.442Z,10.50
2022-10-31T05:40:16.869Z,10.50
2022-10-31T05:42:44.312Z,10.50
2022-10-31T05:45:17.326Z,10.50
2022-10-31T05:47:50.980Z,10.40
2022-10-31T05:50:17.724Z,10.40
2022-10-31T05:52:44.283Z,10.40
2022-10-31T05:55:11.116Z,10.40
2022-10-31T05:57:37.760Z,10.40
2022-10-31T06:00:05.935Z,10.40
2022-10-31T06:02:35.299Z,10.30
2022-10-31T06:05:02.384Z,10.30
2022-10-31T06:07:34.740Z,10.30
2022-10-31T06:10:02.383Z,10.30
2022-10-31T06:12:30.770Z,10.20
2022-10-31T06:14:57.678Z,10.20
2022-10-31T06:17:24.299Z,10.20
2022-10-31T06:22:22.468Z,10.10
2022-10-31T06:24:49.269Z,10.10
2022-10-31T06:27:15.948Z,10.10
2022-10-31T06:29:42.629Z,10.10
2022-10-31T06:32:13.252Z,10.10
2022-10-31T06:34:41.276Z,10.10
2022-10-31T06:37:09.143Z,10.10
2022-10-31T06:39:36.320Z,10.10
2022-10-31T06:42:04.198Z,10.10
2022-10-31T06:44:31.338Z,10.10
2022-10-31T06:46:57.992Z,10.10
2022-10-31T06:49:24.642Z,10.10
2022-10-31T06:51:51.904Z,10.20
2022-10-31T06:54:18.867Z,10.20
2022-10-31T06:56:49.707Z,10.20
2022-10-31T06:59:16.392Z,10.20
2022-10-31T07:01:43.198Z,10.20
2022-10-31T07:04:13.459Z,10.20
2022-10-31T07:06:40.189Z,10.30
2022-10-31T07:09:07.110Z,10.30
2022-10-31T07:11:33.955Z,10.30
2022-10-31T07:14:00.678Z,10.30
2022-10-31T07:16:27.333Z,10.30
2022-10-31T07:18:54.119Z,10.40
2022-10-31T07:21:21.090Z,10.40
2022-10-31T07:23:50.809Z,10.40
2022-10-31T07:26:17.639Z,10.50
2022-10-31T07:28:44.638Z,10.60
2022-10-31T07:31:11.283Z,10.60
2022-10-31T07:33:37.971Z,10.70
2022-10-31T07:36:04.880Z,10.70
2022-10-31T07:38:31.489Z,10.80
2022-10-31T07:40:58.567Z,10.70
2022-10-31T07:43:25.350Z,10.80
2022-10-31T07:45:53.554Z,10.80
2022-10-31T07:48:20.872Z,10.90
2022-10-31T07:50:47.880Z,10.90
2022-10-31T07:53:15.775Z,11.10
2022-10-31T07:55:43.200Z,11.20
2022-10-31T07:58:12.683Z,11.30
2022-10-31T08:00:41.450Z,11.30
2022-10-31T08:03:16.842Z,11.40
2022-10-31T08:05:45.745Z,11.50
2022-10-31T08:08:13.164Z,11.60
2022-10-31T08:10:41.317Z,11.70
2022-10-31T08:13:11.122Z,11.80
2022-10-31T08:15:40.400Z,11.80
2022-10-31T08:18:10.700Z,11.90
2022-10-31T08:20:37.324Z,12.00
2022-10-31T08:23:06.290Z,12.10
2022-10-31T08:25:38.272Z,12.20
2022-10-31T08:28:42.668Z,12.30
2022-10-31T08:31:11.282Z,12.30
2022-10-31T08:33:38.095Z,12.40
2022-10-31T08:36:13.973Z,12.50
2022-10-31T08:39:10.684Z,12.50
2022-10-31T08:41:37.492Z,12.50
2022-10-31T08:44:04.236Z,12.60
2022-10-31T08:46:31.024Z,12.70
2022-10-31T08:48:57.693Z,12.80
2022-10-31T08:51:24.571Z,12.80
2022-10-31T08:53:51.223Z,12.90
2022-10-31T08:56:18.044Z,13.00
2022-10-31T08:58:44.704Z,13.00
2022-10-31T09:01:11.833Z,13.20
2022-10-31T09:03:38.776Z,13.30
2022-10-31T09:06:09.764Z,13.40
2022-10-31T09:08:45.576Z,13.50
2022-10-31T09:11:12.239Z,13.60
2022-10-31T09:13:41.384Z,13.80
2022-10-31T09:16:08.409Z,13.80
2022-10-31T09:18:35.435Z,13.90
2022-10-31T09:21:02.571Z,14.10
2022-10-31T09:23:29.480Z,14.30
2022-10-31T09:25:56.658Z,14.50
2022-10-31T09:28:24.616Z,14.60
2022-10-31T09:30:53.621Z,14.80
2022-10-31T09:33:21.494Z,14.80
2022-10-31T09:35:51.345Z,15.00
2022-10-31T09:38:20.291Z,15.20
2022-10-31T09:40:48.941Z,15.30
2022-10-31T09:43:34.617Z,15.40
2022-10-31T09:46:08.373Z,15.30
2022-10-31T09:48:57.657Z,15.40
2022-10-31T09:51:39.861Z,15.40
2022-10-31T09:54:13.458Z,15.30
2022-10-31T09:56:40.393Z,15.40
2022-10-31T09:59:31.184Z,15.40
2022-10-31T10:02:17.987Z,15.50
2022-10-31T10:05:07.082Z,15.50
2022-10-31T10:07:33.722Z,15.60
2022-10-31T10:10:03.358Z,15.70
2022-10-31T10:13:11.196Z,15.70
2022-10-31T10:16:14.991Z,15.70
2022-10-31T10:18:51.421Z,15.90
2022-10-31T10:21:38.432Z,16.10
2022-10-31T10:24:13.799Z,16.50
2022-10-31T10:26:51.495Z,16.70
2022-10-31T10:29:30.280Z,17.00
2022-10-31T10:32:01.927Z,17.10
2022-10-31T10:34:46.479Z,17.20
2022-10-31T10:37:33.690Z,17.40
2022-10-31T10:40:12.076Z,17.40
2022-10-31T10:42:57.373Z,17.40
2022-10-31T10:45:42.615Z,17.40
2022-10-31T10:48:16.019Z,17.40
2022-10-31T10:50:48.850Z,17.30
2022-10-31T10:53:37.690Z,17.50
2022-10-31T10:56:31.568Z,17.50
2022-10-31T10:58:58.865Z,17.60
2022-10-31T11:01:26.241Z,17.60
2022-10-31T11:03:54.999Z,17.60
2022-10-31T11:06:27.034Z,17.50
2022-10-31T11:08:54.284Z,17.60
2022-10-31T11:11:30.481Z,17.60
2022-10-31T11:14:14.566Z,17.60
2022-10-31T11:16:56.275Z,17.60
2022-10-31T11:19:29.714Z,17.70
2022-10-31T11:22:15.878Z,17.70
2022-10-31T11:24:43.796Z,17.70
2022-10-31T11:27:21.390Z,17.70
2022-10-31T11:29:48.240Z,17.80
2022-10-31T11:32:27.474Z,18.00
2022-10-31T11:35:00.370Z,18.00
2022-10-31T11:37:40.927Z,18.00
2022-10-31T11:40:17.566Z,18.10
2022-10-31T11:42:45.025Z,18.10
2022-10-31T11:45:29.312Z,18.30
2022-10-31T11:47:59.890Z,18.30
2022-10-31T11:50:42.235Z,18.30
2022-10-31T11:53:18.826Z,18.30
2022-10-31T11:55:47.056Z,18.30
2022-10-31T11:58:25.783Z,18.40
2022-10-31T12:00:56.021Z,18.30
2022-10-31T12:04:07.268Z,18.40
2022-10-31T12:06:39.582Z,18.40
2022-10-31T12:09:24.760Z,18.50
2022-10-31T12:11:57.250Z,18.50
2022-10-31T12:14:43.772Z,18.60
2022-10-31T12:17:19.451Z,18.60
2022-10-31T12:20:16.117Z,18.50
2022-10-31T12:23:02.449Z,18.50
2022-10-31T12:25:44.195Z,18.50
2022-10-31T12:28:14.038Z,18.40
2022-10-31T12:30:43.792Z,18.40
2022-10-31T12:33:16.579Z,18.40
2022-10-31T12:36:00.755Z,18.50
2022-10-31T12:38:36.753Z,18.40
2022-10-31T12:41:40.855Z,18.50
2022-10-31T12:44:12.995Z,18.50
2022-10-31T12:47:00.847Z,18.40
2022-10-31T12:49:30.566Z,18.40
2022-10-31T12:52:12.629Z,18.50
2022-10-31T12:55:04.502Z,18.50
2022-10-31T12:57:40.191Z,18.50
2022-10-31T13:00:19.661Z,18.60
2022-10-31T13:03:18.516Z,18.60
2022-10-31T13:05:49.764Z,18.60
2022-10-31T13:08:43.760Z,18.60
2022-10-31T13:11:17.699Z,18.60
2022-10-31T13:13:57.562Z,18.70
2022-10-31T13:16:30.928Z,18.70
2022-10-31T13:19:15.528Z,18.60
2022-10-31T13:22:05.561Z,18.60
2022-10-31T13:24:53.944Z,18.70
2022-10-31T13:27:24.739Z,18.70
2022-10-31T13:30:04.239Z,18.70
2022-10-31T13:32:50.900Z,18.70
2022-10-31T13:35:38.909Z,18.70
2022-10-31T13:38:35.789Z,18.70
2022-10-31T13:41:22.876Z,18.70
2022-10-31T13:44:04.182Z,18.60
2022-10-31T13:46:34.093Z,18.60
2022-10-31T13:49:01.010Z,18.60
2022-10-31T13:51:30.829Z,18.60
2022-10-31T13:53:57.463Z,18.50
2022-10-31T13:56:36.415Z,18.50
2022-10-31T13:59:22.780Z,18.40
2022-10-31T14:01:56.953Z,18.50
2022-10-31T14:04:29.288Z,18.50
2022-10-31T14:07:08.051Z,18.50
2022-10-31T14:09:38.640Z,18.50
2022-10-31T14:12:15.847Z,18.40
2022-10-31T14:14:49.801Z,18.60
2022-10-31T14:17:24.079Z,18.70
2022-10-31T14:20:03.829Z,18.60
2022-10-31T14:22:33.885Z,18.60
2022-10-31T14:25:02.083Z,18.60
2022-10-31T14:27:28.942Z,18.50
2022-10-31T14:29:55.709Z,18.50
2022-10-31T14:32:25.121Z,18.40
2022-10-31T14:34:51.752Z,18.50
2022-10-31T14:37:44.752Z,18.40
2022-10-31T14:40:36.231Z,18.50
2022-10-31T14:43:24.167Z,18.50
2022-10-31T14:46:00.029Z,18.50
2022-10-31T14:48:42.843Z,18.40
2022-10-31T14:51:50.551Z,18.40
2022-10-31T14:54:46.681Z,18.30
2022-10-31T14:57:35.597Z,18.20
2022-10-31T15:00:07.251Z,18.20
2022-10-31T15:03:15.206Z,18.30
2022-10-31T15:05:46.754Z,18.40
2022-10-31T15:08:27.676Z,18.30
2022-10-31T15:10:54.501Z,18.20
2022-10-31T15:13:23.382Z,18.30
2022-10-31T15:15:54.413Z,18.30
2022-10-31T15:18:28.651Z,18.30
2022-10-31T15:20:57.382Z,18.30
2022-10-31T15:23:27.346Z,18.30
2022-10-31T15:26:02.241Z,18.30
2022-10-31T15:28:29.440Z,18.20
2022-10-31T15:31:03.975Z,18.10
2022-10-31T15:33:47.980Z,18.10
2022-10-31T15:36:29.153Z,18.20
2022-10-31T15:38:58.791Z,18.10
2022-10-31T15:41:36.047Z,18.10
2022-10-31T15:44:23.033Z,18.10
2022-10-31T15:47:16.954Z,18.00
2022-10-31T15:49:56.230Z,17.80
2022-10-31T15:52:48.184Z,17.70
2022-10-31T15:55:16.962Z,17.70
2022-10-31T15:57:52.572Z,17.70
2022-10-31T16:00:23.941Z,17.60
2022-10-31T16:02:50.781Z,17.50
2022-10-31T16:05:20.154Z,17.40
2022-10-31T16:07:51.253Z,17.40
2022-10-31T16:10:26.488Z,17.40
2022-10-31T16:12:54.237Z,17.40
2022-10-31T16:15:22.104Z,17.20
2022-10-31T16:17:51.445Z,17.20
2022-10-31T16:20:29.990Z,17.10
2022-10-31T16:22:59.019Z,17.00
2022-10-31T16:25:30.631Z,17.00
2022-10-31T16:28:04.432Z,17.00
2022-10-31T16:30:39.668Z,16.90
2022-10-31T16:33:29.869Z,16.90
2022-10-31T16:36:09.606Z,16.80
2022-10-31T16:38:46.679Z,16.80
2022-10-31T16:41:13.569Z,16.70
2022-10-31T16:43:40.610Z,16.70
2022-10-31T16:48:39.972Z,16.80
2022-10-31T16:51:11.114Z,16.80
2022-10-31T16:53:40.600Z,16.80
2022-10-31T16:56:23.323Z,16.70
2022-10-31T16:58:49.996Z,16.70
2022-10-31T17:01:17.185Z,16.70
2022-10-31T17:03:43.904Z,16.70
2022-10-31T17:06:14.193Z,16.60
2022-10-31T17:08:41.406Z,16.50
2022-10-31T17:11:15.728Z,16.60
2022-10-31T17:13:42.364Z,16.40
2022-10-31T17:16:09.087Z,16.40
2022-10-31T17:18:35.930Z,16.30
2022-10-31T17:21:06.083Z,16.30
2022-10-31T17:23:33.400Z,16.20
2022-10-31T17:26:00.447Z,16.10
2022-10-31T17:28:27.229Z,16.10
2022-10-31T17:30:59.523Z,16.10
2022-10-31T17:33:26.744Z,16.00
2022-10-31T17:35:53.708Z,16.00
2022-10-31T17:38:20.426Z,15.90
2022-10-31T17:40:49.996Z,15.90
2022-10-31T17:43:16.684Z,15.90
2022-10-31T17:45:43.275Z,15.90
2022-10-31T17:48:12.339Z,15.90
2022-10-31T17:50:39.138Z,15.90
2022-10-31T17:53:06.086Z,15.90
2022-10-31T17:55:36.177Z,15.90
2022-10-31T17:58:04.911Z,15.90
2022-10-31T18:00:32.270Z,15.90
2022-10-31T18:02:59.670Z,15.90
2022-10-31T18:05:26.684Z,15.90
2022-10-31T18:07:53.446Z,15.90
2022-10-31T18:10:20.166Z,15.90
2022-10-31T18:12:48.631Z,15.90
2022-10-31T18:15:17.027Z,15.90
2022-10-31T18:17:44.150Z,15.90
2022-10-31T18:20:11.406Z,15.90
2022-10-31T18:22:38.115Z,15.90
2022-10-31T18:25:05.634Z,15.90
2022-10-31T18:27:32.281Z,15.90
2022-10-31T18:29:59.098Z,15.90
2022-10-31T18:32:25.897Z,15.90
2022-10-31T18:34:52.607Z,15.80
2022-10-31T18:37:19.241Z,15.70
2022-10-31T18:39:46.013Z,15.60
2022-10-31T18:42:12.761Z,15.60
2022-10-31T18:44:39.437Z,15.50
2022-10-31T18:47:06.157Z,15.40
2022-10-31T18:49:33.448Z,15.40
2022-10-31T18:52:00.501Z,15.30
2022-10-31T18:54:27.177Z,15.20
2022-10-31T18:56:54.479Z,15.20
2022-10-31T18:59:21.242Z,15.10
2022-10-31T19:01:48.048Z,15.10
2022-10-31T19:04:14.786Z,15.00
2022-10-31T19:06:41.417Z,14.90
2022-10-31T19:09:09.566Z,14.90
2022-10-31T19:11:37.918Z,14.80
2022-10-31T19:14:05.757Z,14.70
2022-10-31T19:16:32.375Z,14.80
2022-10-31T19:18:59.975Z,14.70
2022-10-31T19:21:26.724Z,14.70
2022-10-31T19:23:56.164Z,14.70
2022-10-31T19:26:23.071Z,14.70
2022-10-31T19:28:49.670Z,14.70
2022-10-31T19:31:18.797Z,14.60
2022-10-31T19:33:46.147Z,14.60
2022-10-31T19:36:15.531Z,14.60
2022-10-31T19:38:47.807Z,14.70
2022-10-31T19:41:32.696Z,14.70
2022-10-31T19:44:00.858Z,14.70
2022-10-31T19:46:48.092Z,14.70
2022-10-31T19:49:15.402Z,14.70
2022-10-31T19:51:42.211Z,14.70
2022-10-31T19:54:08.824Z,14.80
2022-10-31T19:56:35.437Z,14.80
2022-10-31T19:59:03.879Z,14.80
2022-10-31T20:01:30.988Z,14.90
2022-10-31T20:03:57.851Z,15.10
2022-10-31T20:06:39.276Z,15.20
2022-10-31T20:09:08.632Z,15.30
2022-10-31T20:11:37.420Z,15.40
2022-10-31T20:14:04.963Z,15.50
2022-10-31T20:16:32.504Z,15.60
2022-10-31T20:18:59.739Z,15.70
2022-10-31T20:21:30.840Z,15.80
2022-10-31T20:24:02.444Z,15.90
2022-10-31T20:26:30.566Z,16.00
2022-10-31T20:28:58.198Z,16.00
2022-10-31T20:31:27.396Z,16.10
2022-10-31T20:33:55.670Z,16.20
2022-10-31T20:36:23.324Z,16.20
2022-10-31T20:38:51.320Z,16.30
2022-10-31T20:41:18.592Z,16.30
2022-10-31T20:43:45.465Z,16.40
2022-10-31T20:46:14.745Z,16.40
2022-10-31T20:48:41.822Z,16.50
2022-10-31T20:51:17.603Z,16.50
2022-10-31T20:53:44.558Z,16.50
2022-10-31T20:56:16.740Z,16.60
2022-10-31T20:58:44.282Z,16.50
2022-10-31T21:01:36.407Z,16.50
2022-10-31T21:04:04.581Z,16.60
2022-10-31T21:06:31.634Z,16.60
2022-10-31T21:08:58.532Z,16.60
2022-10-31T21:11:27.005Z,16.60
2022-10-31T21:13:54.449Z,16.50
2022-10-31T21:16:22.483Z,16.50
2022-10-31T21:18:50.184Z,16.40
2022-10-31T21:21:18.653Z,16.40
2022-10-31T21:23:45.515Z,16.40
2022-10-31T21:26:23.353Z,16.50
2022-10-31T21:28:52.491Z,16.50
2022-10-31T21:31:19.625Z,16.40
2022-10-31T21:33:47.439Z,16.50
2022-10-31T21:36:14.714Z,16.50
2022-10-31T21:38:42.227Z,16.50
2022-10-31T21:41:12.289Z,16.40
2022-10-31T21:43:40.725Z,16.40
2022-10-31T21:46:13.607Z,16.40
2022-10-31T21:48:42.116Z,16.40
2022-10-31T21:51:11.270Z,16.40
2022-10-31T21:53:57.572Z,16.40
2022-10-31T21:56:24.748Z,16.40
2022-10-31T21:58:52.860Z,16.30
2022-10-31T22:01:20.051Z,16.20
2022-10-31T22:03:47.132Z,16.20
2022-10-31T22:06:14.356Z,16.30
2022-10-31T22:08:41.829Z,16.20
2022-10-31T22:11:11.374Z,16.20
2022-10-31T22:13:38.091Z,16.10
2022-10-31T22:16:07.342Z,16.10
2022-10-31T22:18:34.930Z,16.00
2022-10-31T22:21:03.663Z,16.00
2022-10-31T22:23:31.076Z,16.00
2022-10-31T22:26:02.825Z,16.00
2022-10-31T22:28:31.370Z,16.10
2022-10-31T22:30:58.357Z,16.10
2022-10-31T22:33:25.839Z,16.20
2022-10-31T22:35:52.710Z,16.30
2022-10-31T22:38:19.323Z,16.40
2022-10-31T22:40:46.038Z,16.50
2022-10-31T22:43:12.974Z,16.50
2022-10-31T22:45:39.590Z,16.60
2022-10-31T22:48:06.525Z,16.60
2022-10-31T22:50:33.128Z,16.60
2022-10-31T22:52:59.770Z,16.60
2022-10-31T22:55:26.506Z,16.60
2022-10-31T22:57:53.150Z,16.60
2022-10-31T23:00:20.204Z,16.60
2022-10-31T23:02:46.831Z,16.60
2022-10-31T23:05:13.532Z,16.60
2022-10-31T23:07:40.372Z,16.70
2022-10-31T23:10:07.594Z,16.70
2022-10-31T23:12:53.040Z,16.80
2022-10-31T23:15:19.649Z,16.90
2022-10-31T23:17:46.495Z,16.90
2022-10-31T23:20:13.109Z,16.90
2022-10-31T23:22:40.736Z,16.90
2022-10-31T23:25:08.225Z,17.00
2022-10-31T23:27:34.925Z,17.10
2022-10-31T23:30:02.082Z,17.10
2022-10-31T23:32:31.295Z,17.10
2022-10-31T23:35:09.619Z,17.10
2022-10-31T23:37:38.354Z,17.20
2022-10-31T23:40:08.089Z,17.20
2022-10-31T23:42:34.886Z,17.20
2022-10-31T23:45:01.923Z,17.10
2022-10-31T23:47:28.536Z,17.20
2022-10-31T23:49:55.228Z,17.20
2022-10-31T23:52:21.831Z,17.20
2022-10-31T23:54:48.398Z,17.20
2022-10-31T23:57:16.878Z,17.30
2022-10-31T23:59:43.771Z,17.30
